createdAt,value
2022-10-22T00:06:17.969Z,14.11
2022-10-22T00:52:32.130Z,13.82
2022-10-22T00:56:21.919Z,13.85
2022-10-22T01:24:47.214Z,13.79
2022-10-22T01:43:44.562Z,13.66
2022-10-22T01:51:56.566Z,13.65
2022-10-22T01:56:01.736Z,13.63
2022-10-22T02:00:28.988Z,13.57
2022-10-22T02:53:35.309Z,13.52
2022-10-22T02:57:35.464Z,13.52
2022-10-22T03:00:59.704Z,13.44
2022-10-22T03:04:33.072Z,13.41
2022-10-22T03:08:11.399Z,13.35
2022-10-22T03:19:48.165Z,13.36
2022-10-22T04:16:42.145Z,13.30
2022-10-22T04:24:40.526Z,13.25
2022-10-22T04:28:17.277Z,13.23
2022-10-22T04:40:12.518Z,13.17
2022-10-22T04:43:55.072Z,13.19
2022-10-22T04:47:24.440Z,13.18
2022-10-22T04:50:52.149Z,13.17
2022-10-22T04:54:37.557Z,13.17
2022-10-22T04:58:11.195Z,13.17
2022-10-22T05:01:37.074Z,13.16
2022-10-22T05:04:49.573Z,13.17
2022-10-22T07:11:54.079Z,13.00
2022-10-22T07:15:19.532Z,13.02
2022-10-22T07:30:25.595Z,13.00
2022-10-22T07:34:02.970Z,13.02
2022-10-22T07:37:44.050Z,12.99
2022-10-22T07:50:09.510Z,13.02
2022-10-22T07:53:26.335Z,13.04
2022-10-22T07:56:56.667Z,13.09
2022-10-22T08:05:05.285Z,13.11
2022-10-22T08:38:09.496Z,13.25
2022-10-22T08:46:08.137Z,13.27
2022-10-22T08:51:10.278Z,13.33
2022-10-22T09:26:29.946Z,13.77
2022-10-22T10:50:03.786Z,16.29
2022-10-22T10:53:57.952Z,16.26
2022-10-22T10:58:17.923Z,16.24
2022-10-22T11:01:27.115Z,16.21
2022-10-22T11:05:15.855Z,16.22
2022-10-22T11:08:46.780Z,16.24
2022-10-22T11:12:12.207Z,16.31
2022-10-22T11:15:56.810Z,16.38
2022-10-22T11:20:00.993Z,16.38
2022-10-22T11:24:21.909Z,16.46
2022-10-22T11:32:07.009Z,16.52
2022-10-22T11:35:30.315Z,16.49
2022-10-22T11:38:49.313Z,16.50
2022-10-22T11:42:35.851Z,16.45
2022-10-22T11:46:23.231Z,16.52
2022-10-22T11:50:17.949Z,16.53
2022-10-22T11:53:49.290Z,16.48
2022-10-22T15:08:45.347Z,16.01
2022-10-22T15:11:51.518Z,15.99
2022-10-22T15:14:49.479Z,15.93
2022-10-22T15:17:54.181Z,15.88
2022-10-22T15:21:05.724Z,15.84
2022-10-22T15:24:26.681Z,15.84
2022-10-22T15:27:35.598Z,15.79
2022-10-22T15:30:40.053Z,15.78
2022-10-22T15:34:01.709Z,15.71
2022-10-22T15:37:18.741Z,15.70
2022-10-22T15:40:24.174Z,15.74
2022-10-22T15:48:30.177Z,15.78
2022-10-22T16:05:59.949Z,15.76
2022-10-22T16:09:27.015Z,15.73
2022-10-22T16:20:59.245Z,15.65
2022-10-22T16:28:45.875Z,15.50
2022-10-22T16:31:55.479Z,15.48
2022-10-22T16:38:42.805Z,15.42
2022-10-22T16:42:05.728Z,15.35
2022-10-22T16:46:12.308Z,15.26
2022-10-22T16:50:32.986Z,15.10
2022-10-22T16:58:25.830Z,14.86
2022-10-22T17:02:31.860Z,14.75
2022-10-22T17:06:44.976Z,14.68
2022-10-22T17:09:36.490Z,14.65
2022-10-22T17:12:56.063Z,14.60
2022-10-22T17:16:24.703Z,14.59
2022-10-22T17:21:02.295Z,14.57
2022-10-22T17:25:12.059Z,14.53
2022-10-22T17:28:24.151Z,14.50
2022-10-22T17:31:43.173Z,14.44
2022-10-22T18:10:44.483Z,14.33
2022-10-22T18:13:55.463Z,14.33
2022-10-22T18:17:11.020Z,14.32
2022-10-22T18:20:16.287Z,14.28
2022-10-22T18:23:24.879Z,14.27
2022-10-22T18:26:47.168Z,14.26
2022-10-22T18:29:57.423Z,14.25
2022-10-22T18:33:09.340Z,14.23
2022-10-22T18:36:21.390Z,14.25
2022-10-22T18:39:45.075Z,14.23
2022-10-22T18:43:17.176Z,14.22
2022-10-22T18:46:29.703Z,14.19
2022-10-22T18:49:57.790Z,14.17
2022-10-22T18:53:30.600Z,14.14
2022-10-22T18:57:14.700Z,14.12
2022-10-22T19:00:29.159Z,14.11
2022-10-22T19:03:41.489Z,14.10
2022-10-22T19:07:15.725Z,14.07
2022-10-22T19:10:23.037Z,14.06
2022-10-22T19:13:29.942Z,14.04
2022-10-22T19:16:37.617Z,14.03
2022-10-22T19:19:44.466Z,14.03
2022-10-22T19:22:50.249Z,14.03
2022-10-22T19:26:16.757Z,14.01
2022-10-22T19:29:31.500Z,14.00
2022-10-22T19:32:36.009Z,13.99
2022-10-22T19:35:51.016Z,13.96
2022-10-22T19:38:56.459Z,13.95
2022-10-22T19:42:01.928Z,13.89
2022-10-22T19:45:16.532Z,13.89
2022-10-22T19:48:27.130Z,13.87
2022-10-22T19:51:36.280Z,13.87
2022-10-22T19:54:48.928Z,13.86
2022-10-22T19:57:53.361Z,13.85
2022-10-22T20:00:57.633Z,13.84
2022-10-22T20:04:02.149Z,13.83
2022-10-22T20:07:06.749Z,13.82
2022-10-22T20:10:12.101Z,13.80
2022-10-22T20:13:16.622Z,13.76
2022-10-22T20:16:25.995Z,13.72
2022-10-22T20:19:30.471Z,13.72
2022-10-22T20:22:35.102Z,13.71
2022-10-22T20:26:03.333Z,13.69
2022-10-22T20:29:11.674Z,13.68
2022-10-22T20:32:24.426Z,13.67
2022-10-22T20:35:35.682Z,13.64
2022-10-22T20:38:43.454Z,13.60
2022-10-22T20:41:52.883Z,13.54
2022-10-22T20:45:00.322Z,13.49
2022-10-22T20:48:10.639Z,13.45
2022-10-22T20:51:17.424Z,13.39
2022-10-22T20:54:24.473Z,13.34
2022-10-22T20:57:31.978Z,13.28
2022-10-22T21:00:40.242Z,13.24
2022-10-22T21:03:52.897Z,13.19
2022-10-22T21:06:58.862Z,13.16
2022-10-22T21:10:04.561Z,13.13
2022-10-22T21:13:09.103Z,13.08
2022-10-22T21:16:17.807Z,13.05
2022-10-22T21:19:23.843Z,13.02
2022-10-22T21:22:28.783Z,12.98
2022-10-22T21:25:33.055Z,12.94
2022-10-22T21:28:37.877Z,12.89
2022-10-22T21:31:43.368Z,12.88
2022-10-22T21:34:48.045Z,12.82
2022-10-22T21:38:00.587Z,12.81
2022-10-22T21:41:15.726Z,12.78
2022-10-22T21:44:27.682Z,12.75
2022-10-22T21:47:32.198Z,12.71
2022-10-22T21:50:44.574Z,12.70
2022-10-22T21:53:53.721Z,12.66
2022-10-22T21:56:59.537Z,12.63
2022-10-22T22:00:07.617Z,12.61
2022-10-22T22:03:15.384Z,12.59
2022-10-22T22:06:28.300Z,12.54
2022-10-22T22:09:40.041Z,12.53
2022-10-22T22:12:45.116Z,12.49
2022-10-22T22:15:52.610Z,12.48
2022-10-22T22:22:12.390Z,12.42
2022-10-22T22:25:42.806Z,12.38
2022-10-22T22:28:52.232Z,12.33
2022-10-22T22:31:59.750Z,12.33
2022-10-22T22:35:07.259Z,12.31
2022-10-22T22:38:13.435Z,12.29
2022-10-22T22:41:19.055Z,12.26
2022-10-22T22:44:25.693Z,12.26
2022-10-22T22:47:33.091Z,12.27
2022-10-22T22:50:40.636Z,12.26
2022-10-22T22:53:48.615Z,12.26
2022-10-22T22:56:58.749Z,12.24
2022-10-22T23:00:05.248Z,12.24
2022-10-22T23:03:09.539Z,12.22
2022-10-22T23:06:15.133Z,12.20
2022-10-22T23:12:25.584Z,12.16
2022-10-22T23:15:30.124Z,12.15
2022-10-22T23:18:35.246Z,12.13
2022-10-22T23:21:41.892Z,12.12
2022-10-22T23:24:46.488Z,12.14
2022-10-22T23:27:57.695Z,12.13
2022-10-22T23:31:05.406Z,12.11
2022-10-22T23:37:25.250Z,12.06
2022-10-22T23:40:33.103Z,12.03
2022-10-22T23:43:38.475Z,12.00
2022-10-22T23:46:46.572Z,11.97
2022-10-22T23:49:50.920Z,11.94
2022-10-22T23:52:57.999Z,11.92
2022-10-22T23:56:08.760Z,11.90
2022-10-22T23:59:17.694Z,11.85
